Glasgo, Connecticut
Current Conditions -  °F | °C
As of 4:03 PM on Friday 31 Oct 2014 (Local Time) from KWST Reporting Station
Overcast Overcast  
Wind Chill: 53°   Ceiling: 4300
Heat Index: 53°   Visibility: 10mi
Dew Point: 41°   Wind: 7mph
Humidity: 64%   Direction: 50°NE
Pressure: 29.93"   Gusts: NA
Location:  41.56°N, 71.89°W
Report Text: KWST 312003Z AUTO 05006KT 10SM SCT028 OVC043 12/05 A2993 RMK AO2 T01170050
Loading
Personal Weather Stations






























Interactive Weather Map New forecast layout! Learn more

10-Day Weather Forecast

Advertisements
Track Severe Weather on mobile